createdAt,value
2023-04-16T00:00:22.008Z,10.73
2023-04-16T00:05:23.879Z,14.98
2023-04-16T00:10:25.657Z,12.52
2023-04-16T00:15:27.480Z,12.70
2023-04-16T00:20:29.214Z,15.77
2023-04-16T00:25:31.325Z,12.48
2023-04-16T00:30:33.097Z,15.88
2023-04-16T00:35:35.000Z,15.43
2023-04-16T00:40:36.740Z,14.27
2023-04-16T00:45:38.741Z,16.08
2023-04-16T00:50:40.640Z,17.50
2023-04-16T00:55:42.725Z,17.85
2023-04-16T01:00:44.470Z,17.33
2023-04-16T01:05:49.310Z,17.45
2023-04-16T01:10:51.044Z,17.58
2023-04-16T01:15:52.941Z,19.92
2023-04-16T01:20:54.681Z,21.92
2023-04-16T01:25:56.498Z,21.92
2023-04-16T01:30:58.318Z,20.85
2023-04-16T01:36:20.498Z,21.17
2023-04-16T01:41:22.636Z,21.70
2023-04-16T01:46:29.364Z,20.80
2023-04-16T01:51:32.203Z,22.55
2023-04-16T01:56:33.977Z,20.75
2023-04-16T02:01:35.815Z,20.17
2023-04-16T02:06:39.495Z,20.60
2023-04-16T02:11:41.229Z,20.08
2023-04-16T02:16:43.064Z,17.27
2023-04-16T02:21:53.276Z,16.38
2023-04-16T02:26:55.053Z,17.88
2023-04-16T02:31:56.975Z,15.50
2023-04-16T02:36:59.551Z,15.77
2023-04-16T02:42:02.782Z,15.93
2023-04-16T02:47:04.624Z,15.63
2023-04-16T02:52:06.406Z,19.63
2023-04-16T02:57:08.843Z,16.83
2023-04-16T03:02:10.833Z,17.45
2023-04-16T03:07:13.753Z,17.88
2023-04-16T03:12:15.514Z,18.35
2023-04-16T03:17:17.265Z,17.60
2023-04-16T03:22:19.115Z,17.70
2023-04-16T03:27:21.421Z,16.85
2023-04-16T03:32:23.377Z,17.77
2023-04-16T03:37:25.255Z,17.90
2023-04-16T03:42:27.277Z,17.75
2023-04-16T03:47:29.081Z,18.50
2023-04-16T03:52:34.833Z,17.65
2023-04-16T03:57:37.190Z,20.98
2023-04-16T04:02:45.026Z,19.65
2023-04-16T04:07:53.103Z,23.30
2023-04-16T04:12:54.914Z,23.38
2023-04-16T04:17:57.527Z,23.67
2023-04-16T04:22:59.400Z,23.17
2023-04-16T04:28:02.204Z,24.83
2023-04-16T04:33:04.177Z,24.85
2023-04-16T04:38:06.600Z,23.23
2023-04-16T04:43:09.119Z,23.25
2023-04-16T04:48:11.305Z,22.15
2023-04-16T04:53:14.963Z,21.60
2023-04-16T04:58:17.666Z,23.25
2023-04-16T05:03:24.004Z,22.73
2023-04-16T05:08:25.810Z,26.60
2023-04-16T05:13:27.577Z,24.55
2023-04-16T05:18:29.324Z,21.98
2023-04-16T05:23:31.173Z,23.98
2023-04-16T05:28:32.925Z,22.70
2023-04-16T05:33:34.812Z,25.48
2023-04-16T05:38:36.569Z,27.38
2023-04-16T05:43:38.304Z,24.98
2023-04-16T05:48:40.030Z,25.63
2023-04-16T05:53:42.153Z,23.25
2023-04-16T05:58:43.872Z,22.55
2023-04-16T06:03:45.855Z,25.95
2023-04-16T06:08:47.682Z,21.80
2023-04-16T06:13:49.461Z,22.73
2023-04-16T06:18:51.200Z,26.00
2023-04-16T06:23:52.993Z,26.17
2023-04-16T06:28:54.756Z,26.33
2023-04-16T06:33:56.791Z,26.08
2023-04-16T06:38:58.508Z,26.52
2023-04-16T06:44:00.287Z,25.52
2023-04-16T06:49:02.327Z,26.83
2023-04-16T06:54:04.242Z,25.13
2023-04-16T06:59:06.262Z,23.63
2023-04-16T07:04:08.233Z,27.10
2023-04-16T07:09:10.438Z,22.17
2023-04-16T07:14:12.356Z,24.83
2023-04-16T07:19:14.170Z,22.38
2023-04-16T07:24:16.185Z,22.90
2023-04-16T07:29:17.986Z,24.33
2023-04-16T07:34:20.023Z,22.83
2023-04-16T07:39:21.762Z,23.48
2023-04-16T07:44:23.612Z,28.27
2023-04-16T07:49:25.701Z,23.02
2023-04-16T07:54:28.937Z,25.55
2023-04-16T07:59:31.280Z,27.25
2023-04-16T08:04:33.275Z,26.35
2023-04-16T08:09:38.541Z,30.15
2023-04-16T08:14:41.324Z,29.77
2023-04-16T08:19:47.121Z,32.15
2023-04-16T08:24:48.914Z,32.15
2023-04-16T08:29:51.356Z,32.22
2023-04-16T08:34:53.226Z,36.70
2023-04-16T08:39:54.998Z,38.88
2023-04-16T08:45:08.948Z,35.10
2023-04-16T08:50:12.117Z,40.95
2023-04-16T08:55:16.981Z,36.30
2023-04-16T09:00:19.534Z,35.35
2023-04-16T09:05:25.690Z,36.97
2023-04-16T09:10:27.764Z,40.58
2023-04-16T09:15:29.653Z,39.42
2023-04-16T09:20:31.405Z,38.00
2023-04-16T09:25:38.619Z,37.10
2023-04-16T09:30:41.357Z,37.45
2023-04-16T09:35:51.284Z,39.47
2023-04-16T09:41:08.657Z,38.90
2023-04-16T09:46:12.871Z,39.15
2023-04-16T09:51:14.795Z,39.38
2023-04-16T09:56:16.776Z,37.78
2023-04-16T10:01:18.789Z,39.03
2023-04-16T10:06:23.504Z,34.38
2023-04-16T10:11:26.379Z,33.88
2023-04-16T10:16:29.893Z,34.97
2023-04-16T10:21:34.274Z,34.85
2023-04-16T10:26:36.862Z,31.25
2023-04-16T10:36:59.441Z,30.27
2023-04-16T10:42:09.195Z,29.70
2023-04-16T10:47:12.874Z,29.52
2023-04-16T10:52:20.239Z,31.85
2023-04-16T10:57:22.017Z,28.73
2023-04-16T11:02:29.235Z,31.90
2023-04-16T11:07:35.192Z,29.17
2023-04-16T11:12:46.424Z,31.20
2023-04-16T11:17:51.771Z,27.95
2023-04-16T11:22:55.685Z,24.73
2023-04-16T11:28:01.193Z,24.08
2023-04-16T11:33:11.411Z,25.35
2023-04-16T11:38:13.249Z,24.23
2023-04-16T11:43:16.722Z,20.50
2023-04-16T11:48:18.504Z,22.40
2023-04-16T11:53:20.271Z,22.15
2023-04-16T11:58:23.438Z,20.98
2023-04-16T12:03:39.660Z,19.50
2023-04-16T12:08:43.194Z,19.10
2023-04-16T12:14:11.574Z,18.02
2023-04-16T12:19:13.659Z,18.10
2023-04-16T12:24:20.917Z,18.15
2023-04-16T12:29:27.962Z,16.20
2023-04-16T12:34:46.658Z,15.18
2023-04-16T12:39:51.278Z,16.63
2023-04-16T12:44:53.216Z,16.10
2023-04-16T12:49:56.890Z,16.98
2023-04-16T12:54:58.674Z,16.38
2023-04-16T13:00:00.493Z,17.85
2023-04-16T13:05:02.678Z,15.13
2023-04-16T13:10:06.322Z,16.15
2023-04-16T13:15:08.833Z,16.20
2023-04-16T13:20:10.995Z,15.25
2023-04-16T13:25:12.774Z,13.35
2023-04-16T13:30:14.838Z,14.23
2023-04-16T13:35:16.590Z,14.90
2023-04-16T13:40:20.974Z,16.42
2023-04-16T13:45:22.800Z,16.73
2023-04-16T13:50:24.618Z,14.05
2023-04-16T13:55:26.552Z,14.85
2023-04-16T14:00:29.164Z,12.57
2023-04-16T14:05:30.945Z,16.23
2023-04-16T14:10:33.226Z,14.45
2023-04-16T14:15:35.188Z,14.15
2023-04-16T14:20:39.775Z,13.20
2023-04-16T14:25:41.618Z,14.82
2023-04-16T14:30:43.402Z,12.60
2023-04-16T14:35:45.177Z,13.02
2023-04-16T14:40:46.902Z,13.20
2023-04-16T14:45:48.776Z,14.40
2023-04-16T14:50:50.707Z,12.70
2023-04-16T14:55:52.612Z,11.27
2023-04-16T15:00:54.471Z,13.52
2023-04-16T15:05:57.080Z,12.88
2023-04-16T15:10:58.845Z,13.65
2023-04-16T15:16:04.972Z,15.95
2023-04-16T15:21:07.414Z,15.77
2023-04-16T15:26:09.220Z,11.75
2023-04-16T15:31:11.505Z,13.88
2023-04-16T15:36:13.534Z,13.45
2023-04-16T15:41:15.683Z,15.65
2023-04-16T15:46:17.629Z,13.80
2023-04-16T15:51:19.490Z,16.15
2023-04-16T15:56:21.421Z,15.57
2023-04-16T16:01:23.188Z,15.93
2023-04-16T16:06:25.031Z,14.13
2023-04-16T16:11:27.694Z,17.75
2023-04-16T16:16:30.875Z,16.02
2023-04-16T16:21:32.785Z,15.95
2023-04-16T16:26:35.023Z,16.80
2023-04-16T16:31:36.963Z,17.10
2023-04-16T16:36:38.921Z,16.98
2023-04-16T16:41:42.425Z,16.67
2023-04-16T16:46:44.270Z,15.10
2023-04-16T16:51:49.415Z,16.13
2023-04-16T16:56:53.081Z,18.45
2023-04-16T17:01:55.021Z,16.15
2023-04-16T17:06:56.811Z,14.70
2023-04-16T17:11:58.550Z,15.68
2023-04-16T17:17:00.655Z,14.73
2023-04-16T17:22:03.303Z,16.23
2023-04-16T17:27:05.062Z,18.05
2023-04-16T17:32:06.965Z,15.60
2023-04-16T17:37:08.720Z,16.33
2023-04-16T17:42:10.462Z,14.93
2023-04-16T17:47:12.291Z,20.02
2023-04-16T17:52:14.121Z,16.38
2023-04-16T17:57:16.572Z,18.17
2023-04-16T18:02:18.979Z,15.65
2023-04-16T18:07:21.017Z,16.35
2023-04-16T18:12:22.740Z,16.02
2023-04-16T18:17:24.547Z,14.43
2023-04-16T18:22:28.305Z,16.10
2023-04-16T18:27:30.167Z,15.43
2023-04-16T18:32:31.978Z,14.43
2023-04-16T18:37:33.748Z,13.73
2023-04-16T18:42:36.436Z,14.45
2023-04-16T18:47:40.033Z,16.10
2023-04-16T18:52:42.009Z,13.98
2023-04-16T18:57:43.816Z,13.55
2023-04-16T19:02:45.834Z,12.90
2023-04-16T19:07:47.857Z,14.45
2023-04-16T19:12:49.768Z,14.75
2023-04-16T19:17:51.533Z,14.68
2023-04-16T19:22:53.465Z,13.82
2023-04-16T19:27:56.566Z,13.93
2023-04-16T19:32:58.530Z,14.65
2023-04-16T19:38:00.744Z,12.75
2023-04-16T19:43:02.487Z,14.25
2023-04-16T19:48:04.472Z,13.20
2023-04-16T19:53:06.412Z,13.15
2023-04-16T19:58:08.936Z,17.27
2023-04-16T20:03:10.973Z,13.50
2023-04-16T20:08:12.777Z,14.02
2023-04-16T20:13:16.053Z,15.48
2023-04-16T20:18:19.547Z,14.10
2023-04-16T20:23:21.456Z,13.82
2023-04-16T20:28:23.243Z,15.70
2023-04-16T20:33:25.179Z,15.43
2023-04-16T20:38:30.149Z,15.32
2023-04-16T20:43:38.610Z,13.98
2023-04-16T20:48:40.556Z,16.02
2023-04-16T20:53:42.385Z,13.90
2023-04-16T20:58:44.349Z,13.75
2023-04-16T21:03:46.598Z,15.18
2023-04-16T21:08:48.435Z,13.25
2023-04-16T21:13:50.234Z,17.75
2023-04-16T21:18:51.950Z,13.48
2023-04-16T21:23:54.482Z,13.13
2023-04-16T21:28:56.221Z,13.80
2023-04-16T21:33:58.257Z,13.32
2023-04-16T21:39:00.218Z,15.52
2023-04-16T21:44:02.027Z,13.48
2023-04-16T21:49:03.908Z,16.40
2023-04-16T21:54:05.800Z,15.55
2023-04-16T21:59:07.616Z,14.60
2023-04-16T22:04:10.042Z,14.48
2023-04-16T22:09:12.090Z,14.52
2023-04-16T22:14:14.638Z,14.55
2023-04-16T22:19:17.769Z,15.38
2023-04-16T22:24:19.852Z,16.23
2023-04-16T22:29:21.621Z,15.10
2023-04-16T22:34:23.365Z,14.98
2023-04-16T22:39:25.102Z,15.95
2023-04-16T22:44:26.898Z,16.95
2023-04-16T22:49:33.186Z,15.20
2023-04-16T22:54:35.055Z,16.08
2023-04-16T22:59:36.767Z,16.45
2023-04-16T23:04:38.542Z,15.15
2023-04-16T23:09:40.529Z,16.80
2023-04-16T23:14:45.919Z,16.20
2023-04-16T23:19:47.746Z,16.13
2023-04-16T23:24:49.508Z,15.93
2023-04-16T23:29:51.235Z,17.30
2023-04-16T23:34:53.211Z,13.93
2023-04-16T23:39:54.986Z,19.45
2023-04-16T23:44:56.762Z,14.13
2023-04-16T23:49:58.567Z,16.00
2023-04-16T23:55:00.423Z,17.42
